createdAt,value
2023-03-06T00:00:22.635Z,100806.81
2023-03-06T00:02:52.192Z,100800.59
2023-03-06T00:05:23.327Z,100798.88
2023-03-06T00:07:51.382Z,100798.88
2023-03-06T00:10:22.791Z,100797.16
2023-03-06T00:12:52.742Z,100799.84
2023-03-06T00:15:20.953Z,100795.44
2023-03-06T00:17:49.371Z,100796.41
2023-03-06T00:20:17.758Z,100799.09
2023-03-06T00:22:45.660Z,100782.34
2023-03-06T00:25:19.477Z,100789.41
2023-03-06T00:27:50.256Z,100792.97
2023-03-06T00:30:21.032Z,100782.34
2023-03-06T00:32:49.108Z,100785.97
2023-03-06T00:35:19.835Z,100783.28
2023-03-06T00:37:47.880Z,100785.13
2023-03-06T00:40:18.224Z,100785.97
2023-03-06T00:42:46.648Z,100776.34
2023-03-06T00:45:16.022Z,100784.38
2023-03-06T00:47:46.738Z,100771.91
2023-03-06T00:50:14.783Z,100780.84
2023-03-06T00:52:43.070Z,100775.47
2023-03-06T00:55:13.298Z,100765.69
2023-03-06T00:57:41.302Z,100766.56
2023-03-06T01:00:10.810Z,100755.09
2023-03-06T01:02:40.792Z,100759.47
2023-03-06T01:05:14.171Z,100755.09
2023-03-06T01:07:42.140Z,100756.06
2023-03-06T01:10:13.422Z,100752.53
2023-03-06T01:12:41.452Z,100752.63
2023-03-06T01:15:10.681Z,100751.88
2023-03-06T01:17:40.288Z,100744.78
2023-03-06T01:20:09.288Z,100740.31
2023-03-06T01:22:37.268Z,100735.88
2023-03-06T01:25:05.683Z,100718.22
2023-03-06T01:27:33.646Z,100711.09
2023-03-06T01:30:02.012Z,100714.56
2023-03-06T01:32:30.680Z,100711.09
2023-03-06T01:35:00.246Z,100715.59
2023-03-06T01:37:28.216Z,100719.16
2023-03-06T01:39:56.387Z,100721.09
2023-03-06T01:42:24.369Z,100713.03
2023-03-06T01:45:05.759Z,100718.41
2023-03-06T01:47:33.992Z,100709.59
2023-03-06T01:50:05.542Z,100699.97
2023-03-06T01:52:37.608Z,100696.31
2023-03-06T01:55:10.059Z,100695.47
2023-03-06T01:57:41.877Z,100693.75
2023-03-06T02:00:16.091Z,100692.00
2023-03-06T02:02:48.138Z,100697.38
2023-03-06T02:05:17.595Z,100691.16
2023-03-06T02:07:47.105Z,100690.31
2023-03-06T02:10:17.938Z,100685.78
2023-03-06T02:12:46.706Z,100694.69
2023-03-06T02:15:18.485Z,100690.31
2023-03-06T02:17:48.530Z,100687.63
2023-03-06T02:20:23.887Z,100685.91
2023-03-06T02:22:58.344Z,100683.22
2023-03-06T02:25:37.290Z,100685.06
2023-03-06T02:28:06.394Z,100685.06
2023-03-06T02:30:34.730Z,100680.63
2023-03-06T02:33:03.028Z,100682.47
2023-03-06T02:35:33.558Z,100682.47
2023-03-06T02:38:07.227Z,100677.09
2023-03-06T02:40:36.737Z,100671.94
2023-03-06T02:43:04.865Z,100675.59
2023-03-06T02:45:36.926Z,100673.78
2023-03-06T02:48:05.581Z,100668.41
2023-03-06T02:50:34.069Z,100667.56
2023-03-06T02:53:02.209Z,100661.34
2023-03-06T02:55:30.136Z,100654.28
2023-03-06T02:57:59.586Z,100652.47
2023-03-06T03:00:28.265Z,100652.53
2023-03-06T03:02:58.995Z,100646.28
2023-03-06T03:05:29.512Z,100647.19
2023-03-06T03:07:57.449Z,100640.94
2023-03-06T03:10:26.429Z,100634.72
2023-03-06T03:12:54.381Z,100634.84
2023-03-06T03:15:23.693Z,100628.63
2023-03-06T03:17:51.736Z,100630.47
2023-03-06T03:20:21.317Z,100622.31
2023-03-06T03:22:50.183Z,100622.44
2023-03-06T03:25:18.847Z,100617.06
2023-03-06T03:27:47.190Z,100617.06
2023-03-06T03:30:16.493Z,100609.03
2023-03-06T03:32:48.873Z,100603.69
2023-03-06T03:35:17.020Z,100601.59
2023-03-06T03:37:44.944Z,100597.53
2023-03-06T03:40:14.137Z,100598.38
2023-03-06T03:42:42.184Z,100589.28
2023-03-06T03:45:10.912Z,100586.50
2023-03-06T03:47:39.160Z,100578.34
2023-03-06T03:50:10.591Z,100574.09
2023-03-06T03:52:39.135Z,100586.38
2023-03-06T03:55:08.223Z,100584.56
2023-03-06T03:57:36.273Z,100582.78
2023-03-06T04:00:08.030Z,100573.84
2023-03-06T04:02:36.028Z,100568.28
2023-03-06T04:05:05.272Z,100572.78
2023-03-06T04:07:34.680Z,100569.47
2023-03-06T04:10:02.653Z,100568.50
2023-03-06T04:12:30.573Z,100573.00
2023-03-06T04:14:59.144Z,100562.41
2023-03-06T04:17:27.808Z,100560.69
2023-03-06T04:19:55.802Z,100558.00
2023-03-06T04:22:23.757Z,100548.25
2023-03-06T04:24:53.148Z,100551.81
2023-03-06T04:27:21.126Z,100551.88
2023-03-06T04:29:49.191Z,100554.47
2023-03-06T04:32:17.941Z,100548.25
2023-03-06T04:34:47.119Z,100549.22
2023-03-06T04:37:20.639Z,100545.78
2023-03-06T04:39:48.655Z,100543.84
2023-03-06T04:42:18.699Z,100544.81
2023-03-06T04:44:47.156Z,100545.69
2023-03-06T04:47:15.263Z,100540.31
2023-03-06T04:49:43.852Z,100533.25
2023-03-06T04:52:11.772Z,100534.13
2023-03-06T04:54:39.754Z,100527.78
2023-03-06T04:57:07.739Z,100533.16
2023-03-06T04:59:39.175Z,100529.72
2023-03-06T05:02:07.301Z,100528.75
2023-03-06T05:04:35.308Z,100526.09
2023-03-06T05:07:03.269Z,100526.09
2023-03-06T05:09:31.304Z,100526.09
2023-03-06T05:11:59.237Z,100527.06
2023-03-06T05:14:29.903Z,100519.09
2023-03-06T05:16:59.329Z,100520.09
2023-03-06T05:19:28.798Z,100513.03
2023-03-06T05:21:56.728Z,100513.03
2023-03-06T05:24:24.716Z,100517.53
2023-03-06T05:26:52.709Z,100506.81
2023-03-06T05:29:20.787Z,100506.81
2023-03-06T05:31:51.672Z,100502.50
2023-03-06T05:34:21.134Z,100505.19
2023-03-06T05:36:49.271Z,100497.16
2023-03-06T05:39:17.241Z,100501.66
2023-03-06T05:41:45.256Z,100497.34
2023-03-06T05:44:13.203Z,100499.06
2023-03-06T05:46:41.178Z,100500.03
2023-03-06T05:49:09.417Z,100489.44
2023-03-06T05:51:38.795Z,100488.47
2023-03-06T05:54:06.765Z,100492.00
2023-03-06T05:56:34.802Z,100489.31
2023-03-06T05:59:02.713Z,100490.31
2023-03-06T06:01:30.687Z,100492.00
2023-03-06T06:03:58.665Z,100486.78
2023-03-06T06:06:26.652Z,100491.16
2023-03-06T06:08:55.996Z,100491.16
2023-03-06T06:11:23.915Z,100489.44
2023-03-06T06:13:51.996Z,100482.28
2023-03-06T06:16:20.155Z,100490.41
2023-03-06T06:18:48.112Z,100484.09
2023-03-06T06:21:16.321Z,100479.72
2023-03-06T06:23:44.399Z,100480.66
2023-03-06T06:26:13.819Z,100481.50
2023-03-06T06:28:41.734Z,100478.94
2023-03-06T06:31:10.637Z,100486.84
2023-03-06T06:33:41.174Z,100484.28
2023-03-06T06:36:16.951Z,100476.25
2023-03-06T06:38:45.127Z,100485.25
2023-03-06T06:44:08.469Z,100484.41
2023-03-06T06:47:20.700Z,100486.19
2023-03-06T06:49:26.167Z,100491.56
2023-03-06T06:51:54.126Z,100484.50
2023-03-06T06:54:22.426Z,100484.69
2023-03-06T06:56:51.887Z,100489.00
2023-03-06T06:59:19.910Z,100483.66
2023-03-06T07:01:48.086Z,100482.78
2023-03-06T07:04:16.851Z,100488.16
2023-03-06T07:06:44.903Z,100483.75
2023-03-06T07:09:13.625Z,100493.63
2023-03-06T07:11:42.271Z,100493.63
2023-03-06T07:14:11.683Z,100489.13
2023-03-06T07:16:39.845Z,100496.28
2023-03-06T07:19:08.589Z,100500.75
2023-03-06T07:21:36.647Z,100495.41
2023-03-06T07:24:07.418Z,100496.38
2023-03-06T07:26:35.410Z,100493.69
2023-03-06T07:29:04.039Z,100500.03
2023-03-06T07:31:33.514Z,100499.91
2023-03-06T07:34:05.129Z,100504.41
2023-03-06T07:36:34.140Z,100513.41
2023-03-06T07:39:02.239Z,100505.25
2023-03-06T07:41:30.320Z,100500.03
2023-03-06T07:44:01.242Z,100504.53
2023-03-06T07:46:29.250Z,100507.19
2023-03-06T07:48:59.387Z,100510.72
2023-03-06T07:51:27.431Z,100510.84
2023-03-06T07:53:55.627Z,100509.09
2023-03-06T07:56:23.632Z,100513.41
2023-03-06T07:58:51.546Z,100504.59
2023-03-06T08:01:23.577Z,100518.97
2023-03-06T08:03:51.880Z,100513.59
2023-03-06T08:06:26.068Z,100517.25
2023-03-06T08:08:55.474Z,100513.59
2023-03-06T08:11:25.490Z,100514.56
2023-03-06T08:13:55.781Z,100516.41
2023-03-06T08:16:26.252Z,100511.78
2023-03-06T08:18:54.289Z,100509.22
2023-03-06T08:21:25.815Z,100516.41
2023-03-06T08:23:54.627Z,100511.13
2023-03-06T08:26:25.083Z,100512.94
2023-03-06T08:28:53.871Z,100513.81
2023-03-06T08:31:31.209Z,100513.81
2023-03-06T08:34:02.697Z,100514.78
2023-03-06T08:36:32.118Z,100512.94
2023-03-06T08:39:00.470Z,100519.16
2023-03-06T08:41:28.761Z,100516.41
2023-03-06T08:43:57.143Z,100517.25
2023-03-06T08:46:27.129Z,100519.94
2023-03-06T08:48:58.315Z,100522.69
2023-03-06T08:51:28.118Z,100530.63
2023-03-06T08:53:58.150Z,100533.38
2023-03-06T08:56:28.356Z,100530.72
2023-03-06T08:58:58.238Z,100529.88
2023-03-06T09:01:28.436Z,100530.72
2023-03-06T09:03:57.822Z,100532.84
2023-03-06T09:06:31.735Z,100526.66
2023-03-06T09:09:01.617Z,100535.72
2023-03-06T09:11:33.066Z,100525.13
2023-03-06T09:14:01.094Z,100527.81
2023-03-06T09:16:29.511Z,100534.13
2023-03-06T09:18:58.770Z,100538.06
2023-03-06T09:21:28.298Z,100526.69
2023-03-06T09:23:56.382Z,100526.50
2023-03-06T09:26:39.603Z,100532.63
2023-03-06T09:29:12.651Z,100528.00
2023-03-06T09:31:40.714Z,100522.56
2023-03-06T09:34:08.729Z,100515.19
2023-03-06T09:36:53.227Z,100516.91
2023-03-06T09:39:23.119Z,100507.78
2023-03-06T09:41:53.439Z,100513.16
2023-03-06T09:44:27.604Z,100514.03
2023-03-06T09:47:12.124Z,100512.09
2023-03-06T09:50:01.415Z,100514.78
2023-03-06T09:52:37.531Z,100511.13
2023-03-06T09:55:13.479Z,100511.91
2023-03-06T09:57:52.396Z,100513.59
2023-03-06T10:00:26.658Z,100516.28
2023-03-06T10:03:01.327Z,100512.56
2023-03-06T10:05:36.872Z,100519.59
2023-03-06T10:08:12.464Z,100514.25
2023-03-06T10:10:45.430Z,100519.50
2023-03-06T10:13:20.510Z,100521.31
2023-03-06T10:15:50.581Z,100529.25
2023-03-06T10:18:19.213Z,100526.59
2023-03-06T10:20:57.492Z,100527.44
2023-03-06T10:23:43.487Z,100525.63
2023-03-06T10:26:18.190Z,100530.97
2023-03-06T10:28:57.913Z,100529.16
2023-03-06T10:31:27.750Z,100528.19
2023-03-06T10:33:57.063Z,100524.66
2023-03-06T10:36:27.666Z,100526.34
2023-03-06T10:38:57.997Z,100524.56
2023-03-06T10:41:29.814Z,100525.41
2023-03-06T10:44:25.118Z,100529.81
2023-03-06T10:46:54.875Z,100520.06
2023-03-06T10:49:31.712Z,100519.94
2023-03-06T10:52:06.717Z,100526.16
2023-03-06T10:54:36.674Z,100531.50
2023-03-06T10:57:26.069Z,100532.28
2023-03-06T10:59:57.616Z,100528.75
2023-03-06T11:02:29.634Z,100532.28
2023-03-06T11:05:02.153Z,100527.91
2023-03-06T11:07:31.202Z,100533.97
2023-03-06T11:10:07.638Z,100534.97
2023-03-06T11:12:37.229Z,100533.97
2023-03-06T11:15:18.740Z,100520.72
2023-03-06T11:17:53.734Z,100516.09
2023-03-06T11:20:24.926Z,100520.59
2023-03-06T11:22:57.196Z,100512.56
2023-03-06T11:25:31.017Z,100520.59
2023-03-06T11:28:03.937Z,100523.28
2023-03-06T11:30:40.916Z,100518.88
2023-03-06T11:33:18.858Z,100517.06
2023-03-06T11:36:00.748Z,100506.38
2023-03-06T11:38:39.998Z,100509.16
2023-03-06T11:41:19.038Z,100501.84
2023-03-06T11:43:57.899Z,100500.16
2023-03-06T11:46:35.416Z,100501.00
2023-03-06T11:49:13.296Z,100502.63
2023-03-06T11:51:44.263Z,100495.44
2023-03-06T11:54:15.297Z,100498.97
2023-03-06T11:56:51.040Z,100492.66
2023-03-06T11:59:43.120Z,100486.44
2023-03-06T12:02:26.559Z,100480.97
2023-03-06T12:05:02.596Z,100481.94
2023-03-06T12:07:34.139Z,100488.06
2023-03-06T12:10:14.343Z,100478.28
2023-03-06T12:12:59.834Z,100470.25
2023-03-06T12:15:41.714Z,100464.81
2023-03-06T12:18:33.460Z,100458.50
2023-03-06T12:21:08.184Z,100462.03
2023-03-06T12:24:05.160Z,100459.47
2023-03-06T12:26:49.626Z,100464.72
2023-03-06T12:29:33.526Z,100453.91
2023-03-06T12:32:15.294Z,100447.91
2023-03-06T12:35:07.089Z,100452.50
2023-03-06T12:37:49.687Z,100447.25
2023-03-06T12:40:41.382Z,100442.97
2023-03-06T12:43:39.946Z,100442.09
2023-03-06T12:46:14.383Z,100449.38
2023-03-06T12:48:44.673Z,100441.47
2023-03-06T12:51:19.096Z,100436.09
2023-03-06T12:53:48.187Z,100441.47
2023-03-06T12:56:18.630Z,100432.66
2023-03-06T12:58:50.136Z,100437.06
2023-03-06T13:01:49.419Z,100432.66
2023-03-06T13:04:50.393Z,100428.28
2023-03-06T13:07:37.829Z,100417.56
2023-03-06T13:10:12.099Z,100418.53
2023-03-06T13:12:50.443Z,100414.16
2023-03-06T13:15:40.441Z,100403.53
2023-03-06T13:18:57.586Z,100405.28
2023-03-06T13:22:01.691Z,100403.47
2023-03-06T13:24:37.194Z,100399.16
2023-03-06T13:27:08.091Z,100401.63
2023-03-06T13:30:06.812Z,100388.25
2023-03-06T13:32:37.739Z,100385.38
2023-03-06T13:35:48.483Z,100381.72
2023-03-06T13:38:51.794Z,100378.91
2023-03-06T13:41:58.493Z,100385.03
2023-03-06T13:44:48.824Z,100371.53
2023-03-06T13:47:35.644Z,100374.84
2023-03-06T13:50:37.360Z,100376.47
2023-03-06T13:53:28.921Z,100373.69
2023-03-06T13:56:10.757Z,100372.69
2023-03-06T13:58:58.634Z,100363.72
2023-03-06T14:01:44.250Z,100367.13
2023-03-06T14:04:42.376Z,100357.28
2023-03-06T14:07:25.654Z,100359.88
2023-03-06T14:10:03.008Z,100356.22
2023-03-06T14:12:35.145Z,100351.59
2023-03-06T14:15:13.467Z,100352.34
2023-03-06T14:17:58.218Z,100345.28
2023-03-06T14:20:34.353Z,100342.63
2023-03-06T14:23:24.667Z,100338.00
2023-03-06T14:25:58.016Z,100337.13
2023-03-06T14:28:28.302Z,100339.72
2023-03-06T14:30:59.585Z,100332.63
2023-03-06T14:33:32.363Z,100329.97
2023-03-06T14:36:03.705Z,100328.13
2023-03-06T14:38:36.302Z,100323.66
2023-03-06T14:41:05.901Z,100320.09
2023-03-06T14:43:33.930Z,100319.16
2023-03-06T14:46:05.150Z,100323.41
2023-03-06T14:48:42.452Z,100312.81
2023-03-06T14:51:17.602Z,100314.53
2023-03-06T14:53:50.184Z,100311.00
2023-03-06T14:56:20.462Z,100307.34
2023-03-06T14:58:56.304Z,100309.06
2023-03-06T15:01:31.033Z,100303.72
2023-03-06T15:04:00.700Z,100303.72
2023-03-06T15:06:33.231Z,100314.44
2023-03-06T15:09:07.839Z,100320.72
2023-03-06T15:12:08.029Z,100312.69
2023-03-06T15:14:37.980Z,100311.00
2023-03-06T15:17:29.936Z,100301.25
2023-03-06T15:20:01.731Z,100300.28
2023-03-06T15:22:34.243Z,100297.59
2023-03-06T15:25:19.952Z,100291.41
2023-03-06T15:27:52.752Z,100292.25
2023-03-06T15:30:32.496Z,100277.16
2023-03-06T15:33:21.045Z,100277.03
2023-03-06T15:35:54.954Z,100277.16
2023-03-06T15:38:25.850Z,100277.88
2023-03-06T15:40:58.893Z,100269.84
2023-03-06T15:43:27.267Z,100260.97
2023-03-06T15:46:00.103Z,100263.66
2023-03-06T15:48:29.975Z,100253.06
2023-03-06T15:50:58.151Z,100252.94
2023-03-06T15:53:26.400Z,100248.44
2023-03-06T15:55:54.556Z,100244.91
2023-03-06T15:58:24.936Z,100248.44
2023-03-06T16:00:53.456Z,100246.59
2023-03-06T16:03:21.525Z,100238.69
2023-03-06T16:05:50.915Z,100244.06
2023-03-06T16:08:19.104Z,100238.69
2023-03-06T16:10:47.737Z,100231.63
2023-03-06T16:13:19.983Z,100235.16
2023-03-06T16:15:49.253Z,100240.53
2023-03-06T16:18:20.036Z,100240.53
2023-03-06T16:20:48.246Z,100227.13
2023-03-06T16:23:17.528Z,100230.66
2023-03-06T16:25:50.307Z,100228.84
2023-03-06T16:28:21.385Z,100219.94
2023-03-06T16:30:49.459Z,100225.19
2023-03-06T16:33:17.476Z,100222.50
2023-03-06T16:35:47.255Z,100221.66
2023-03-06T16:38:16.267Z,100217.16
2023-03-06T16:40:45.617Z,100218.66
2023-03-06T16:43:16.663Z,100212.13
2023-03-06T16:45:44.896Z,100203.97
2023-03-06T16:48:17.464Z,100202.16
2023-03-06T16:50:45.709Z,100206.44
2023-03-06T16:53:13.973Z,100200.84
2023-03-06T16:55:42.185Z,100191.72
2023-03-06T16:58:11.494Z,100187.97
2023-03-06T17:00:42.730Z,100187.75
2023-03-06T17:03:10.764Z,100196.63
2023-03-06T17:05:39.339Z,100191.03
2023-03-06T17:08:07.345Z,100193.72
2023-03-06T17:10:35.428Z,100183.22
2023-03-06T17:13:03.456Z,100192.13
2023-03-06T17:15:32.801Z,100186.00
2023-03-06T17:18:00.799Z,100183.31
2023-03-06T17:20:28.745Z,100185.91
2023-03-06T17:22:56.673Z,100180.66
2023-03-06T17:25:24.852Z,100183.47
2023-03-06T17:27:52.835Z,100171.66
2023-03-06T17:30:20.868Z,100182.25
2023-03-06T17:32:50.140Z,100178.59
2023-03-06T17:35:18.340Z,100174.22
2023-03-06T17:37:46.288Z,100175.06
2023-03-06T17:40:15.661Z,100181.41
2023-03-06T17:42:43.587Z,100176.03
2023-03-06T17:45:12.561Z,100170.69
2023-03-06T17:47:40.538Z,100169.72
2023-03-06T17:50:11.501Z,100171.41
2023-03-06T17:52:42.419Z,100160.69
2023-03-06T17:55:11.020Z,100166.94
2023-03-06T17:57:38.980Z,100164.34
2023-03-06T18:00:08.459Z,100168.72
2023-03-06T18:02:36.772Z,100159.75
2023-03-06T18:05:05.308Z,100163.28
2023-03-06T18:07:34.660Z,100166.81
2023-03-06T18:10:02.688Z,100163.28
2023-03-06T18:12:30.619Z,100159.75
2023-03-06T18:14:58.807Z,100160.47
2023-03-06T18:17:29.049Z,100151.44
2023-03-06T18:19:57.509Z,100148.78
2023-03-06T18:22:25.549Z,100150.50
2023-03-06T18:24:54.840Z,100146.84
2023-03-06T18:27:23.112Z,100145.88
2023-03-06T18:29:52.244Z,100135.16
2023-03-06T18:32:20.233Z,100138.81
2023-03-06T18:34:50.581Z,100129.78
2023-03-06T18:37:18.859Z,100127.00
2023-03-06T18:39:46.878Z,100126.13
2023-03-06T18:42:16.261Z,100119.81
2023-03-06T18:44:48.238Z,100105.56
2023-03-06T18:47:16.419Z,100117.13
2023-03-06T18:49:46.039Z,100107.03
2023-03-06T18:52:14.042Z,100098.88
2023-03-06T18:54:42.266Z,100096.94
2023-03-06T18:57:13.220Z,100090.84
2023-03-06T18:59:42.527Z,100090.69
2023-03-06T19:02:11.366Z,100092.31
2023-03-06T19:04:39.493Z,100090.47
2023-03-06T19:07:07.990Z,100077.06
2023-03-06T19:09:39.056Z,100070.75
2023-03-06T19:12:07.665Z,100075.16
2023-03-06T19:14:36.463Z,100066.25
2023-03-06T19:17:05.951Z,100073.31
2023-03-06T19:19:33.964Z,100057.22
2023-03-06T19:22:02.099Z,100061.59
2023-03-06T19:24:30.113Z,100060.63
2023-03-06T19:26:58.098Z,100048.22
2023-03-06T19:29:26.195Z,100048.97
2023-03-06T19:31:57.146Z,100047.22
2023-03-06T19:34:26.869Z,100040.91
2023-03-06T19:36:57.801Z,100036.41
2023-03-06T19:39:25.778Z,100033.59
2023-03-06T19:41:53.821Z,100025.69
2023-03-06T19:44:24.418Z,100018.63
2023-03-06T19:46:55.154Z,100019.47
2023-03-06T19:49:23.128Z,100021.03
2023-03-06T19:51:52.464Z,100013.84
2023-03-06T19:54:23.386Z,100012.06
2023-03-06T19:56:51.494Z,100004.88
2023-03-06T19:59:19.579Z,99998.66
2023-03-06T20:01:47.582Z,99995.84
2023-03-06T20:04:16.945Z,99995.69
2023-03-06T20:06:46.714Z,99990.34
2023-03-06T20:09:16.083Z,99984.88
2023-03-06T20:11:44.104Z,99979.50
2023-03-06T20:14:13.856Z,99973.16
2023-03-06T20:16:42.247Z,99971.34
2023-03-06T20:19:12.386Z,99975.72
2023-03-06T20:21:40.434Z,99960.63
2023-03-06T20:24:09.980Z,99957.84
2023-03-06T20:26:42.330Z,99955.16
2023-03-06T20:29:10.476Z,99954.16
2023-03-06T20:31:38.440Z,99954.16
2023-03-06T20:34:06.519Z,99953.19
2023-03-06T20:36:37.043Z,99938.94
2023-03-06T20:39:08.315Z,99939.78
2023-03-06T20:41:36.615Z,99936.13
2023-03-06T20:44:08.002Z,99928.91
2023-03-06T20:46:36.081Z,99924.56
2023-03-06T20:49:04.886Z,99919.19
2023-03-06T20:51:36.080Z,99922.72
2023-03-06T20:54:04.853Z,99909.31
2023-03-06T20:56:34.678Z,99917.25
2023-03-06T20:59:03.168Z,99907.38
2023-03-06T21:01:34.132Z,99903.09
2023-03-06T21:04:04.266Z,99894.06
2023-03-06T21:06:32.814Z,99900.31
2023-03-06T21:09:01.951Z,99899.34
2023-03-06T21:11:30.065Z,99890.31
2023-03-06T21:13:58.476Z,99886.63
2023-03-06T21:16:27.983Z,99886.41
2023-03-06T21:18:58.725Z,99882.63
2023-03-06T21:21:29.361Z,99874.44
2023-03-06T21:23:57.577Z,99865.41
2023-03-06T21:26:29.274Z,99865.41
2023-03-06T21:28:59.190Z,99859.94
2023-03-06T21:31:28.441Z,99851.66
2023-03-06T21:33:58.804Z,99840.06
2023-03-06T21:36:27.546Z,99839.78
2023-03-06T21:38:55.680Z,99834.44
2023-03-06T21:41:28.491Z,99830.81
2023-03-06T21:43:56.969Z,99827.25
2023-03-06T21:46:25.646Z,99828.13
2023-03-06T21:48:54.075Z,99825.44
2023-03-06T21:51:24.777Z,99818.25
2023-03-06T21:53:54.448Z,99812.03
2023-03-06T21:56:25.349Z,99816.41
2023-03-06T21:58:53.850Z,99808.34
2023-03-06T22:01:26.415Z,99805.69
2023-03-06T22:03:54.761Z,99803.84
2023-03-06T22:06:26.673Z,99794.09
2023-03-06T22:08:56.633Z,99791.28
2023-03-06T22:11:26.293Z,99783.38
2023-03-06T22:13:54.667Z,99784.22
2023-03-06T22:16:22.770Z,99778.88
2023-03-06T22:18:52.333Z,99778.88
2023-03-06T22:21:22.587Z,99769.00
2023-03-06T22:23:53.279Z,99764.47
2023-03-06T22:26:21.944Z,99754.00
2023-03-06T22:28:49.896Z,99758.25
2023-03-06T22:31:19.970Z,99759.09
2023-03-06T22:33:48.146Z,99756.44
2023-03-06T22:36:16.817Z,99751.06
2023-03-06T22:38:46.910Z,99754.63
2023-03-06T22:41:20.078Z,99752.91
2023-03-06T22:43:49.318Z,99756.56
2023-03-06T22:46:18.900Z,99751.19
2023-03-06T22:48:47.064Z,99755.56
2023-03-06T22:51:17.416Z,99753.16
2023-03-06T22:53:45.845Z,99754.13
2023-03-06T22:56:15.208Z,99752.31
2023-03-06T22:58:45.161Z,99739.88
2023-03-06T23:01:14.895Z,99743.56
2023-03-06T23:03:44.806Z,99750.72
2023-03-06T23:06:16.155Z,99751.72
2023-03-06T23:08:45.593Z,99743.81
2023-03-06T23:11:15.975Z,99762.44
2023-03-06T23:13:48.523Z,99750.03
2023-03-06T23:16:16.561Z,99749.16
2023-03-06T23:18:44.878Z,99741.25
2023-03-06T23:21:15.946Z,99739.53
2023-03-06T23:23:44.331Z,99743.22
2023-03-06T23:26:15.140Z,99737.00
2023-03-06T23:28:43.239Z,99749.56
2023-03-06T23:31:17.537Z,99737.97
2023-03-06T23:33:45.818Z,99744.31
2023-03-06T23:36:15.567Z,99738.94
2023-03-06T23:38:43.884Z,99736.28
2023-03-06T23:41:14.131Z,99733.59
2023-03-06T23:43:42.518Z,99736.28
2023-03-06T23:46:10.762Z,99730.06
2023-03-06T23:48:41.908Z,99732.75
2023-03-06T23:51:13.081Z,99727.53
2023-03-06T23:53:43.993Z,99729.22
2023-03-06T23:56:12.955Z,99724.00
2023-03-06T23:58:41.285Z,99724.25
